Time;durP1;ratioP1;P1;durP2;ratioP2;P2;SDS_P1;SDS_P2;PMS_P1;PMS_P2;Temp;Humidity;BMP_temperature;BMP_pressure;BME280_temperature;BME280_humidity;BME280_pressure;Samples;Min_cycle;Max_cycle;Signal;HPM_P1;HPM_P2
2023/11/21 00:02:11;;;;;;;5.13;3.15;;;;;;;3.67;73.25;94590.53;5071703;28;20485;-69
2023/11/21 00:04:37;;;;;;;5.88;3.85;;;;;;;3.53;72.88;94586.22;5072120;28;20035;-69
2023/11/21 00:07:03;;;;;;;5.90;3.97;;;;;;;3.79;72.72;94599.28;5070880;28;20094;-69
2023/11/21 00:09:28;;;;;;;12.10;7.28;;;;;;;3.72;73.01;94591.09;5070809;28;20074;-69
2023/11/21 00:11:53;;;;;;;6.90;4.45;;;;;;;3.57;72.54;94556.03;5069895;28;20652;-69
2023/11/21 00:14:19;;;;;;;5.45;3.60;;;;;;;3.74;73.08;94596.97;5070728;28;20029;-69
2023/11/21 00:16:45;;;;;;;4.22;3.05;;;;;;;3.75;73.20;94584.94;5071790;28;20033;-69
2023/11/21 00:19:11;;;;;;;5.93;3.38;;;;;;;3.86;72.56;94592.84;5054103;28;20020;-69
2023/11/21 00:21:36;;;;;;;7.13;3.42;;;;;;;3.44;73.04;94565.38;5053962;28;20032;-69
2023/11/21 00:24:02;;;;;;;3.35;2.13;;;;;;;3.82;73.22;94609.38;5070432;28;20036;-69
2023/11/21 00:26:27;;;;;;;5.25;3.33;;;;;;;3.23;74.84;94603.38;5071966;28;20414;-69
2023/11/21 00:28:53;;;;;;;4.20;2.95;;;;;;;3.47;72.92;94591.72;5071420;28;20032;-69
2023/11/21 00:31:18;;;;;;;5.18;2.83;;;;;;;3.66;72.52;94590.63;5070357;28;20031;-69
2023/11/21 00:33:44;;;;;;;6.72;3.67;;;;;;;3.68;73.43;94583.66;5071492;28;20017;-69
2023/11/21 00:36:09;;;;;;;5.43;3.53;;;;;;;3.45;74.49;94577.31;5089283;28;20508;-69
2023/11/21 00:38:40;;;;;;;4.57;3.28;;;;;;;3.60;74.07;94586.69;5073695;28;20044;-69
2023/11/21 00:41:06;;;;;;;9.25;3.40;;;;;;;3.52;74.76;94578.59;5090515;28;20154;-69
2023/11/21 00:43:33;;;;;;;7.88;3.67;;;;;;;3.44;74.86;94576.47;5090620;28;20028;-69
2023/11/21 00:45:59;;;;;;;4.93;2.97;;;;;;;3.29;74.97;94578.22;5091604;28;20052;-69
2023/11/21 00:48:24;;;;;;;6.15;3.47;;;;;;;3.31;75.15;94580.66;5090119;28;20047;-69
2023/11/21 00:50:50;;;;;;;5.70;2.90;;;;;;;3.49;74.37;94595.03;5090302;28;20031;-69
2023/11/21 00:53:15;;;;;;;5.95;3.30;;;;;;;3.31;74.72;94596.91;5073517;28;20501;-69
2023/11/21 00:55:41;;;;;;;7.13;2.78;;;;;;;3.32;74.46;94584.91;5090095;28;20047;-69
2023/11/21 00:58:06;;;;;;;5.15;3.00;;;;;;;3.46;74.13;94592.63;5091721;28;20501;-69
2023/11/21 01:00:35;;;;;;;4.82;2.70;;;;;;;3.38;74.23;94588.88;5091362;28;20016;-69
2023/11/21 01:03:02;;;;;;;5.68;3.50;;;;;;;3.25;74.27;94584.41;5091212;28;20074;-69
2023/11/21 01:05:27;;;;;;;5.55;3.53;;;;;;;3.22;73.99;94573.50;5089983;28;20490;-69
2023/11/21 01:07:53;;;;;;;6.30;3.22;;;;;;;3.05;74.60;94571.91;5089882;28;20089;-69
2023/11/21 01:10:18;;;;;;;5.68;3.47;;;;;;;3.00;75.57;94571.34;5090026;28;20028;-68
2023/11/21 01:12:44;;;;;;;3.65;2.33;;;;;;;3.16;75.28;94576.44;5091259;28;20039;-69
2023/11/21 01:15:11;;;;;;;3.22;2.25;;;;;;;3.21;75.31;94580.38;5089898;28;20036;-69
2023/11/21 01:17:38;;;;;;;4.13;2.63;;;;;;;3.18;75.17;94560.03;5089936;28;20085;-69
2023/11/21 01:20:10;;;;;;;2.70;1.63;;;;;;;3.46;74.36;94566.13;5089920;28;20079;-69
2023/11/21 01:22:36;;;;;;;4.18;3.15;;;;;;;3.58;74.19;94573.09;5073976;28;20032;-69
2023/11/21 01:25:04;;;;;;;7.53;3.78;;;;;;;3.43;74.72;94572.28;5091330;28;20028;-69
2023/11/21 01:27:29;;;;;;;14.50;8.10;;;;;;;3.20;74.99;94567.63;5073313;28;20032;-69
2023/11/21 01:29:55;;;;;;;9.82;4.70;;;;;;;3.47;74.00;94566.03;5089794;28;20532;-69
2023/11/21 01:32:20;;;;;;;7.45;4.18;;;;;;;3.65;72.99;94576.13;5089811;28;20241;-70
2023/11/21 01:34:46;;;;;;;6.50;2.70;;;;;;;3.52;73.03;94566.59;5083452;28;20020;-68
2023/11/21 01:37:12;;;;;;;4.32;2.58;;;;;;;3.58;72.42;94579.06;5070820;28;20406;-69
2023/11/21 01:39:38;;;;;;;4.55;2.80;;;;;;;3.51;72.64;94572.66;5052827;28;20546;-68
2023/11/21 01:42:05;;;;;;;4.85;2.53;;;;;;;3.35;73.26;94571.88;5069479;28;20052;-69
2023/11/21 01:44:30;;;;;;;7.88;2.60;;;;;;;3.05;73.82;94548.81;5069462;28;20025;-69
2023/11/21 01:46:57;;;;;;;4.47;2.67;;;;;;;3.23;74.33;94580.28;5069447;28;20037;-69
2023/11/21 01:49:23;;;;;;;4.35;2.25;;;;;;;3.10;74.19;94570.75;5052863;28;20025;-69
2023/11/21 01:51:48;;;;;;;4.95;2.97;;;;;;;3.14;73.97;94590.16;5052527;28;20056;-69
2023/11/21 01:54:15;;;;;;;3.83;2.20;;;;;;;3.07;74.46;94590.63;5052757;28;20050;-69
2023/11/21 01:56:40;;;;;;;3.17;2.15;;;;;;;2.93;74.73;94555.47;5052700;28;20071;-68
2023/11/21 01:59:07;;;;;;;4.28;2.25;;;;;;;3.06;75.32;94555.59;5052685;28;20498;-69
2023/11/21 02:01:33;;;;;;;5.15;2.33;;;;;;;2.92;75.51;94548.69;5069321;28;20478;-69
2023/11/21 02:03:59;;;;;;;4.43;2.65;;;;;;;2.94;76.04;94564.81;5036073;28;20033;-69
2023/11/21 02:06:25;;;;;;;4.40;2.60;;;;;;;2.79;75.85;94558.81;5052530;28;20021;-69
2023/11/21 02:08:51;;;;;;;4.97;2.47;;;;;;;2.75;77.01;94565.03;5052535;28;20033;-69
2023/11/21 02:11:16;;;;;;;6.55;2.78;;;;;;;2.77;77.41;94563.22;5052340;28;20032;-69
2023/11/21 02:13:42;;;;;;;5.82;3.17;;;;;;;2.84;76.73;94566.25;5069095;28;20025;-69
2023/11/21 02:16:09;;;;;;;15.57;8.90;;;;;;;2.62;76.17;94562.34;5070351;28;20024;-69
2023/11/21 02:18:36;;;;;;;18.23;11.27;;;;;;;2.46;76.85;94572.59;5069240;28;20028;-69
2023/11/21 02:21:03;;;;;;;19.80;12.77;;;;;;;2.67;76.54;94572.31;5052627;28;20078;-69
2023/11/21 02:23:29;;;;;;;28.70;15.70;;;;;;;2.50;76.81;94572.44;5053139;28;20039;-69
2023/11/21 02:25:54;;;;;;;38.63;21.65;;;;;;;2.13;77.52;94559.06;5074010;28;20028;-69
2023/11/21 02:28:25;;;;;;;33.00;17.67;;;;;;;2.10;77.72;94569.47;5072568;28;20028;-69
2023/11/21 02:30:57;;;;;;;42.17;25.83;;;;;;;1.89;77.82;94568.88;5056832;28;20119;-69
2023/11/21 02:33:23;;;;;;;37.83;22.38;;;;;;;2.18;75.54;94549.41;5057035;28;20039;-69
2023/11/21 02:35:48;;;;;;;37.78;22.40;;;;;;;2.19;75.17;94559.56;5072967;28;20036;-69
2023/11/21 02:38:15;;;;;;;38.03;22.63;;;;;;;2.10;75.85;94567.75;5094394;28;20047;-69
2023/11/21 02:40:41;;;;;;;32.75;21.17;;;;;;;2.09;75.51;94562.69;5084556;28;20020;-69
2023/11/21 02:43:07;;;;;;;33.83;21.17;;;;;;;2.31;74.49;94564.91;5072588;28;20056;-69
2023/11/21 02:45:32;;;;;;;32.83;20.92;;;;;;;2.26;74.12;94565.19;5072370;28;20424;-69
2023/11/21 02:47:58;;;;;;;31.52;20.77;;;;;;;2.06;74.71;94558.56;5055691;28;20044;-69
2023/11/21 02:50:23;;;;;;;20.15;11.57;;;;;;;2.11;75.91;94560.88;5055600;28;20092;-69
2023/11/21 02:52:49;;;;;;;6.82;4.50;;;;;;;2.07;78.25;94542.28;5079985;28;20043;-69
2023/11/21 02:55:14;;;;;;;7.85;4.63;;;;;;;2.33;78.33;94558.81;5093589;28;20471;-69
2023/11/21 02:57:40;;;;;;;4.32;2.80;;;;;;;2.37;78.34;94554.34;5092420;28;20460;-68
2023/11/21 03:00:07;;;;;;;5.95;3.80;;;;;;;2.31;77.07;94570.88;5075533;28;20016;-69
2023/11/21 03:02:33;;;;;;;6.30;3.38;;;;;;;2.41;78.11;94572.03;5092153;28;20105;-69
2023/11/21 03:04:58;;;;;;;6.82;4.93;;;;;;;2.07;77.08;94514.09;5091764;28;20032;-69
2023/11/21 03:07:24;;;;;;;7.60;4.88;;;;;;;1.95;77.40;94517.31;5056159;28;20044;-69
2023/11/21 03:09:50;;;;;;;7.75;4.28;;;;;;;2.14;78.29;94546.16;5073264;28;20043;-74
2023/11/21 03:12:15;;;;;;;11.38;7.35;;;;;;;2.26;78.30;94561.78;5070414;28;20115;-69
2023/11/21 03:14:41;;;;;;;9.70;6.07;;;;;;;2.13;78.21;94553.94;5071606;28;20479;-69
2023/11/21 03:17:06;;;;;;;13.70;9.18;;;;;;;2.13;78.11;94554.75;5071402;28;20063;-69
2023/11/21 03:19:32;;;;;;;14.63;9.82;;;;;;;2.11;77.83;94546.31;5071640;28;20043;-69
2023/11/21 03:21:57;;;;;;;8.25;6.15;;;;;;;2.13;77.46;94554.75;5055027;28;20044;-69
2023/11/21 03:24:23;;;;;;;16.02;11.18;;;;;;;1.92;77.67;94551.63;5054985;28;20031;-68
2023/11/21 03:26:48;;;;;;;14.68;10.55;;;;;;;2.02;77.57;94562.19;5071621;28;20042;-69
2023/11/21 03:29:14;;;;;;;13.52;9.68;;;;;;;1.99;77.33;94570.06;5054698;28;20028;-69
2023/11/21 03:31:40;;;;;;;13.27;9.50;;;;;;;2.12;76.28;94573.63;5087788;28;20032;-69
2023/11/21 03:34:06;;;;;;;22.35;13.93;;;;;;;2.08;75.67;94561.03;5069770;28;20028;-70
2023/11/21 03:36:31;;;;;;;37.55;18.48;;;;;;;2.16;76.14;94580.22;5069578;28;20073;-69
2023/11/21 03:38:57;;;;;;;41.80;21.58;;;;;;;2.02;75.94;94562.19;5071194;28;20036;-69
2023/11/21 03:41:22;;;;;;;37.78;18.92;;;;;;;2.08;76.64;94577.25;5072577;28;20066;-69
2023/11/21 03:43:47;;;;;;;33.28;17.20;;;;;;;2.09;76.05;94573.78;5072290;28;20086;-69
2023/11/21 03:46:13;;;;;;;28.58;14.77;;;;;;;1.99;76.69;94578.56;5072576;28;20024;-69
2023/11/21 03:48:39;;;;;;;21.98;12.68;;;;;;;1.97;77.38;94570.13;5071145;28;20040;-69
2023/11/21 03:51:04;;;;;;;14.57;8.50;;;;;;;2.07;77.39;94570.47;5072429;28;20073;-69
2023/11/21 03:53:30;;;;;;;15.90;7.20;;;;;;;2.11;76.77;94558.31;5072388;28;20047;-69
2023/11/21 03:55:55;;;;;;;16.52;8.35;;;;;;;1.96;76.44;94537.72;5071872;28;20494;-69
2023/11/21 03:58:20;;;;;;;11.38;5.80;;;;;;;1.82;76.05;94513.78;5088034;28;20036;-69
2023/11/21 04:00:48;;;;;;;11.52;6.25;;;;;;;1.91;76.85;94533.75;5104518;28;20017;-69
2023/11/21 04:03:14;;;;;;;6.80;4.45;;;;;;;1.78;77.24;94539.56;5054660;28;20485;-69
2023/11/21 04:05:39;;;;;;;10.38;5.30;;;;;;;1.60;77.26;94529.44;5072136;28;20028;-69
2023/11/21 04:08:05;;;;;;;10.70;5.50;;;;;;;1.60;77.90;94539.69;5070545;28;20036;-69
2023/11/21 04:10:30;;;;;;;7.85;5.78;;;;;;;1.87;77.22;94542.53;5104676;28;20498;-69
2023/11/21 04:12:55;;;;;;;10.00;6.63;;;;;;;1.39;76.86;94503.22;5054102;28;20482;-69
2023/11/21 04:15:21;;;;;;;16.83;9.90;;;;;;;1.56;77.41;94542.41;5071714;28;20070;-68
2023/11/21 04:17:46;;;;;;;10.27;7.63;;;;;;;1.58;78.16;94537.19;5070686;28;20117;-69
2023/11/21 04:20:12;;;;;;;12.75;6.32;;;;;;;1.59;78.10;94543.97;5071677;28;20031;-69
2023/11/21 04:22:41;;;;;;;9.27;6.22;;;;;;;1.47;78.08;94549.72;5070513;28;20433;-69
2023/11/21 04:25:16;;;;;;;11.10;7.53;;;;;;;1.46;79.49;94558.31;5086575;28;20119;-69
2023/11/21 04:27:43;;;;;;;11.00;6.85;;;;;;;1.65;78.51;94542.84;5070273;28;20066;-69
2023/11/21 04:30:09;;;;;;;17.42;14.00;;;;;;;1.62;78.35;94540.44;5053659;28;20116;-69
2023/11/21 04:32:35;;;;;;;13.48;9.52;;;;;;;1.52;78.54;94543.44;5053857;28;20040;-68
2023/11/21 04:35:00;;;;;;;12.65;8.65;;;;;;;1.42;78.78;94528.66;5071278;28;20036;-69
2023/11/21 04:37:26;;;;;;;12.90;7.00;;;;;;;1.41;78.80;94532.94;5070331;28;20091;-69
2023/11/21 04:39:51;;;;;;;11.00;6.45;;;;;;;1.19;79.65;94534.94;5070263;28;20033;-69
2023/11/21 04:42:17;;;;;;;7.55;4.90;;;;;;;1.23;79.33;94537.28;5053471;28;20396;-69
2023/11/21 04:44:43;;;;;;;10.48;6.43;;;;;;;1.16;79.38;94535.94;5069871;28;20399;-69
2023/11/21 04:47:09;;;;;;;12.38;8.30;;;;;;;1.09;79.60;94542.28;5070795;28;20036;-69
2023/11/21 04:49:34;;;;;;;31.85;18.77;;;;;;;0.87;81.08;94551.00;5070120;28;20422;-69
2023/11/21 04:52:01;;;;;;;26.98;16.88;;;;;;;1.08;81.33;94543.16;5069898;28;20051;-70
2023/11/21 04:54:26;;;;;;;19.30;11.73;;;;;;;1.19;79.85;94551.13;5069728;28;20025;-69
2023/11/21 04:56:52;;;;;;;25.42;15.40;;;;;;;1.15;79.73;94536.03;5086839;28;20080;-69
2023/11/21 04:59:17;;;;;;;25.90;15.55;;;;;;;1.06;79.36;94540.69;5069415;28;20512;-69
2023/11/21 05:01:43;;;;;;;28.80;20.02;;;;;;;1.02;80.43;94546.03;5103110;28;20033;-68
2023/11/21 05:04:08;;;;;;;26.55;18.13;;;;;;;1.22;80.25;94550.13;5053225;28;20028;-69
2023/11/21 05:06:34;;;;;;;46.00;27.85;;;;;;;1.29;80.04;94542.09;5053196;28;20027;-69
2023/11/21 05:08:59;;;;;;;35.17;21.92;;;;;;;1.42;79.96;94546.56;5069492;28;20089;-69
2023/11/21 05:11:28;;;;;;;30.17;20.23;;;;;;;1.31;80.78;94540.28;5053065;28;20078;-69
2023/11/21 05:13:56;;;;;;;41.00;25.60;;;;;;;1.11;81.32;94555.78;5069470;28;20036;-69
2023/11/21 05:16:21;;;;;;;37.10;23.63;;;;;;;1.28;81.51;94542.16;5052842;28;20078;-69
2023/11/21 05:18:47;;;;;;;30.23;20.08;;;;;;;1.55;79.60;94538.16;5103293;28;20029;-69
2023/11/21 05:21:12;;;;;;;30.13;20.27;;;;;;;1.25;80.89;94535.44;5086237;28;20490;-68
2023/11/21 05:23:38;;;;;;;28.27;19.05;;;;;;;1.54;79.49;94530.59;5069779;28;20044;-69
2023/11/21 05:26:03;;;;;;;34.85;18.63;;;;;;;1.59;79.63;94543.13;5069618;28;20025;-69
2023/11/21 05:28:29;;;;;;;27.40;17.23;;;;;;;1.41;80.00;94543.19;5069656;28;20090;-69
2023/11/21 05:30:55;;;;;;;23.02;16.38;;;;;;;1.50;80.20;94539.31;5069105;28;20032;-69
2023/11/21 05:33:21;;;;;;;24.77;16.90;;;;;;;1.67;79.30;94546.97;5069094;28;20422;-69
2023/11/21 05:35:48;;;;;;;21.50;14.82;;;;;;;1.50;79.96;94531.63;5052754;28;20029;-68
2023/11/21 05:38:13;;;;;;;19.33;11.63;;;;;;;1.50;80.10;94541.88;5085999;28;20036;-69
2023/11/21 05:40:39;;;;;;;14.18;8.93;;;;;;;1.59;79.28;94550.81;5070545;28;20075;-69
2023/11/21 05:43:05;;;;;;;13.35;9.13;;;;;;;1.46;79.64;94527.59;5070971;28;20406;-69
2023/11/21 05:45:30;;;;;;;10.63;7.78;;;;;;;1.54;79.67;94538.28;5052526;28;20035;-69
2023/11/21 05:47:57;;;;;;;11.52;6.97;;;;;;;1.62;80.37;94555.81;5103160;28;20484;-69
2023/11/21 05:50:23;;;;;;;9.23;6.25;;;;;;;1.68;80.04;94553.75;5085913;28;20032;-69
2023/11/21 05:52:48;;;;;;;7.22;4.70;;;;;;;1.84;79.82;94542.66;5069345;28;20056;-69
2023/11/21 05:55:14;;;;;;;8.98;4.47;;;;;;;1.88;79.34;94545.00;5100849;28;20427;-68
2023/11/21 05:57:40;;;;;;;7.82;4.65;;;;;;;1.72;80.03;94550.09;5048589;28;20036;-68
2023/11/21 06:00:20;;;;;;;6.07;4.43;;;;;;;1.76;80.13;94546.47;5070934;28;20119;-69
2023/11/21 06:02:46;;;;;;;11.05;6.82;;;;;;;1.79;79.99;94556.56;5072144;28;20043;-69
2023/11/21 06:05:11;;;;;;;9.65;6.65;;;;;;;1.61;80.72;94546.44;5053531;28;20510;-69
2023/11/21 06:07:37;;;;;;;12.85;9.40;;;;;;;1.55;81.31;94558.66;5055608;28;20028;-69
2023/11/21 06:10:06;;;;;;;11.65;6.72;;;;;;;1.83;79.35;94543.59;5071222;28;20024;-68
2023/11/21 06:12:35;;;;;;;12.88;9.18;;;;;;;1.87;79.73;94537.41;5051977;28;20075;-69
2023/11/21 06:15:04;;;;;;;13.50;8.43;;;;;;;1.73;80.18;94533.84;5070649;28;20136;-69
2023/11/21 06:17:29;;;;;;;43.28;19.17;;;;;;;1.96;79.89;94562.53;5073716;28;20032;-69
2023/11/21 06:19:55;;;;;;;37.17;19.35;;;;;;;2.03;79.92;94558.72;5103792;28;20522;-68
2023/11/21 06:22:20;;;;;;;26.35;15.77;;;;;;;2.17;78.55;94550.28;5053706;28;20044;-70
2023/11/21 06:24:46;;;;;;;60.88;26.58;;;;;;;2.10;79.34;94565.19;5071955;28;20506;-69
2023/11/21 06:27:11;;;;;;;91.47;38.30;;;;;;;2.14;79.51;94579.47;5074652;28;20101;-69
2023/11/21 06:29:37;;;;;;;139.13;49.90;;;;;;;2.12;79.81;94568.50;5072308;28;20036;-69
2023/11/21 06:32:04;;;;;;;99.35;42.30;;;;;;;2.34;79.48;94573.28;5069871;28;20033;-69
2023/11/21 06:34:30;;;;;;;122.13;47.95;;;;;;;2.11;79.55;94566.81;5072336;28;20470;-69
2023/11/21 06:36:56;;;;;;;104.63;43.95;;;;;;;2.42;79.66;94570.28;5070494;28;20032;-69
2023/11/21 06:39:22;;;;;;;108.72;45.92;;;;;;;2.33;79.64;94586.19;5071588;28;20472;-70
2023/11/21 06:41:49;;;;;;;66.70;36.63;;;;;;;2.11;80.81;94577.06;5070475;28;20028;-69
2023/11/21 06:44:15;;;;;;;82.10;54.55;;;;;;;2.19;79.99;94582.63;5069524;28;20111;-69
2023/11/21 06:46:42;;;;;;;56.47;37.45;;;;;;;2.05;80.19;94577.41;5072723;28;20109;-69
2023/11/21 06:49:08;;;;;;;59.08;37.42;;;;;;;2.49;78.94;94591.31;5069723;28;20099;-69
2023/11/21 06:51:33;;;;;;;64.25;40.58;;;;;;;2.28;79.06;94593.28;5065737;28;20029;-69
2023/11/21 06:53:59;;;;;;;59.08;37.92;;;;;;;2.71;77.86;94593.53;5084579;28;20067;-69
2023/11/21 06:56:25;;;;;;;86.40;46.08;;;;;;;2.67;78.14;94583.44;5067444;28;20048;-69
2023/11/21 06:58:53;;;;;;;55.38;34.40;;;;;;;2.63;78.20;94587.06;5070664;28;20312;-69
2023/11/21 07:01:19;;;;;;;52.85;33.40;;;;;;;2.34;79.40;94587.81;5091923;28;20028;-69
2023/11/21 07:03:45;;;;;;;46.75;31.10;;;;;;;2.84;77.60;94597.88;5092295;28;20043;-69
2023/11/21 07:06:11;;;;;;;45.63;29.33;;;;;;;2.85;76.78;94580.75;5067774;28;20095;-71
2023/11/21 07:08:37;;;;;;;40.85;27.85;;;;;;;2.93;77.11;94590.59;5070222;28;20048;-69
2023/11/21 07:11:03;;;;;;;38.90;26.33;;;;;;;3.03;77.27;94592.53;5068802;28;20410;-69
2023/11/21 07:13:29;;;;;;;43.03;24.95;;;;;;;3.22;76.81;94584.59;5071379;28;20558;-69
2023/11/21 07:15:54;;;;;;;35.28;23.83;;;;;;;3.39;75.43;94588.75;5071064;28;20064;-69
2023/11/21 07:18:20;;;;;;;32.13;21.42;;;;;;;3.50;75.35;94578.69;5073130;28;20028;-69
2023/11/21 07:20:45;;;;;;;22.40;16.42;;;;;;;3.54;74.71;94572.47;5086752;28;20047;-69
2023/11/21 07:23:11;;;;;;;23.00;14.68;;;;;;;3.61;74.91;94575.47;5104293;28;20025;-68
2023/11/21 07:25:36;;;;;;;30.85;16.90;;;;;;;3.33;76.27;94581.41;5052209;28;20572;-69
2023/11/21 07:28:02;;;;;;;23.80;16.25;;;;;;;3.85;75.32;94582.66;5070763;28;20067;-68
2023/11/21 07:30:28;;;;;;;26.25;16.35;;;;;;;3.86;75.23;94566.31;5069695;28;20486;-69
2023/11/21 07:32:53;;;;;;;26.02;17.58;;;;;;;4.42;73.43;94580.81;5069080;28;20032;-68
2023/11/21 07:35:19;;;;;;;27.42;18.17;;;;;;;4.64;72.52;94582.88;5069496;28;20058;-68
2023/11/21 07:37:44;;;;;;;25.55;18.42;;;;;;;4.35;73.72;94571.84;5068669;28;20402;-68
2023/11/21 07:40:11;;;;;;;31.33;17.92;;;;;;;4.91;71.46;94582.88;5070756;28;20447;-68
2023/11/21 07:42:37;;;;;;;27.10;16.38;;;;;;;5.05;71.21;94578.59;5104070;28;20448;-68
2023/11/21 07:45:03;;;;;;;31.33;19.63;;;;;;;4.83;71.85;94586.88;5086553;28;20028;-68
2023/11/21 07:47:29;;;;;;;26.73;17.80;;;;;;;5.24;69.21;94568.75;5070882;28;20123;-68
2023/11/21 07:49:55;;;;;;;31.08;20.15;;;;;;;4.81;70.85;94545.78;5069700;28;20028;-68
2023/11/21 07:52:21;;;;;;;28.92;18.92;;;;;;;4.72;71.81;94569.53;5103303;28;20111;-68
2023/11/21 07:54:47;;;;;;;25.55;16.33;;;;;;;4.14;74.42;94562.88;5069846;28;20034;-69
2023/11/21 07:57:13;;;;;;;28.10;18.15;;;;;;;4.59;72.29;94572.03;5070623;28;20056;-68
2023/11/21 07:59:42;;;;;;;23.55;15.00;;;;;;;4.69;71.80;94555.09;5071076;28;20028;-69
2023/11/21 08:02:07;;;;;;;22.65;13.73;;;;;;;4.78;72.24;94555.44;5071035;28;20056;-68
2023/11/21 08:04:34;;;;;;;15.73;10.32;;;;;;;5.08;70.00;94538.00;5071023;28;20036;-68
2023/11/21 08:06:59;;;;;;;17.17;11.90;;;;;;;4.88;71.31;94553.94;5087675;28;20067;-68
2023/11/21 08:09:25;;;;;;;16.88;12.90;;;;;;;4.59;72.20;94556.59;5070845;28;20037;-68
2023/11/21 08:11:51;;;;;;;24.30;15.20;;;;;;;5.12;70.19;94548.94;5104489;28;20029;-68
2023/11/21 08:14:17;;;;;;;23.08;13.88;;;;;;;5.06;70.82;94541.59;5072035;28;20029;-68
2023/11/21 08:16:42;;;;;;;25.30;15.55;;;;;;;4.77;71.03;94528.06;5070491;28;20040;-68
2023/11/21 08:19:09;;;;;;;24.35;14.93;;;;;;;5.06;70.73;94533.88;5104647;28;20039;-68
2023/11/21 08:21:37;;;;;;;22.15;13.40;;;;;;;5.12;70.96;94523.19;5053351;28;20064;-68
2023/11/21 08:24:04;;;;;;;33.60;16.70;;;;;;;5.19;70.94;94544.22;5071741;28;20031;-68
2023/11/21 08:26:29;;;;;;;23.50;12.40;;;;;;;5.02;71.25;94547.91;5070575;28;20064;-68
2023/11/21 08:28:56;;;;;;;18.60;11.25;;;;;;;5.34;70.23;94550.91;5071588;28;20040;-68
2023/11/21 08:31:25;;;;;;;25.17;14.18;;;;;;;5.10;71.46;94550.78;5070415;28;20498;-68
2023/11/21 08:33:51;;;;;;;25.27;14.20;;;;;;;5.55;69.68;94554.66;5071599;28;20454;-68
2023/11/21 08:36:16;;;;;;;30.52;17.08;;;;;;;5.50;69.94;94548.16;5071488;28;20030;-68
2023/11/21 08:38:41;;;;;;;25.65;16.23;;;;;;;5.44;70.21;94546.00;5070233;28;20024;-68
2023/11/21 08:41:07;;;;;;;27.63;17.02;;;;;;;5.26;71.51;94535.97;5071483;28;20029;-68
2023/11/21 08:43:40;;;;;;;27.30;18.13;;;;;;;5.31;71.57;94544.22;5104174;28;20040;-68
2023/11/21 08:46:08;;;;;;;21.17;11.93;;;;;;;5.55;69.10;94530.63;5070140;28;20036;-69
2023/11/21 08:48:35;;;;;;;19.20;12.52;;;;;;;5.52;70.00;94531.66;5070076;28;20033;-68
2023/11/21 08:51:01;;;;;;;18.00;11.98;;;;;;;5.65;69.58;94533.41;5071293;28;20025;-68
2023/11/21 08:53:26;;;;;;;17.90;11.60;;;;;;;5.62;69.68;94537.00;5104029;28;20043;-68
2023/11/21 08:55:53;;;;;;;29.27;15.45;;;;;;;5.72;69.91;94539.78;5071188;28;20052;-68
2023/11/21 08:58:19;;;;;;;20.48;12.88;;;;;;;5.51;70.60;94534.31;5086725;28;20090;-68
2023/11/21 09:00:46;;;;;;;20.80;12.48;;;;;;;5.34;71.22;94538.03;5069818;28;20127;-68
2023/11/21 09:03:12;;;;;;;18.15;12.55;;;;;;;5.32;71.65;94527.00;5103503;28;20036;-68
2023/11/21 09:05:38;;;;;;;20.95;11.25;;;;;;;5.39;71.90;94535.97;5069779;28;20032;-68
2023/11/21 09:08:04;;;;;;;27.50;14.38;;;;;;;5.44;72.17;94518.47;5086555;28;20047;-68
2023/11/21 09:10:29;;;;;;;18.25;12.60;;;;;;;5.48;71.66;94507.00;5069888;28;20028;-68
2023/11/21 09:12:55;;;;;;;19.65;12.80;;;;;;;5.55;72.10;94510.03;5071267;28;20045;-68
2023/11/21 09:15:20;;;;;;;20.33;11.35;;;;;;;5.26;72.78;94478.47;5069747;28;20021;-68
2023/11/21 09:17:46;;;;;;;23.85;14.27;;;;;;;5.35;72.87;94478.69;5071183;28;20036;-68
2023/11/21 09:20:12;;;;;;;19.52;13.13;;;;;;;5.34;72.86;94468.47;5071005;28;20036;-69
2023/11/21 09:22:37;;;;;;;20.50;13.68;;;;;;;5.40;72.96;94469.81;5071227;28;20401;-68
2023/11/21 09:25:05;;;;;;;19.55;14.88;;;;;;;5.51;72.58;94465.56;5069719;28;20027;-70
2023/11/21 09:27:31;;;;;;;19.45;13.00;;;;;;;5.46;73.09;94467.66;5086202;28;20036;-68
2023/11/21 09:29:58;;;;;;;19.38;13.13;;;;;;;5.51;72.75;94464.75;5052731;28;20127;-68
2023/11/21 09:32:23;;;;;;;17.45;12.07;;;;;;;5.67;71.81;94442.16;5070855;28;20055;-68
2023/11/21 09:34:50;;;;;;;19.25;13.18;;;;;;;5.80;70.92;94440.38;5086381;28;20490;-68
2023/11/21 09:37:15;;;;;;;22.60;15.05;;;;;;;5.57;72.08;94431.69;5070898;28;20098;-68
2023/11/21 09:39:41;;;;;;;18.70;13.65;;;;;;;5.73;72.09;94428.03;5103137;28;20569;-68
2023/11/21 09:42:17;;;;;;;19.85;14.15;;;;;;;5.52;72.45;94394.28;5070787;28;20513;-68
2023/11/21 09:44:47;;;;;;;18.25;14.70;;;;;;;5.54;73.48;94413.00;5069514;28;20098;-69
2023/11/21 09:47:15;;;;;;;21.65;13.55;;;;;;;5.53;73.51;94412.19;5103209;28;20033;-68
2023/11/21 09:49:42;;;;;;;24.50;17.40;;;;;;;5.49;74.20;94397.03;5069390;28;20025;-68
2023/11/21 09:52:08;;;;;;;27.73;16.83;;;;;;;5.55;73.95;94404.38;5069191;28;20032;-68
2023/11/21 09:54:33;;;;;;;25.25;16.10;;;;;;;5.56;73.80;94393.13;5052924;28;20063;-68
2023/11/21 09:56:59;;;;;;;23.52;15.38;;;;;;;5.83;73.07;94388.59;5086170;28;20110;-68
2023/11/21 09:59:25;;;;;;;24.58;16.85;;;;;;;5.94;72.61;94392.22;5086018;28;20395;-69
2023/11/21 10:01:50;;;;;;;15.95;11.68;;;;;;;5.93;71.82;94391.38;5102919;28;20040;-68
2023/11/21 10:04:17;;;;;;;19.25;13.57;;;;;;;5.80;72.10;94375.94;5069252;28;20025;-68
2023/11/21 10:06:42;;;;;;;20.95;13.60;;;;;;;5.93;71.88;94367.31;5102571;28;20037;-68
2023/11/21 10:09:12;;;;;;;19.95;12.50;;;;;;;6.31;70.41;94369.75;5102995;28;20029;-68
2023/11/21 10:11:40;;;;;;;19.67;11.88;;;;;;;6.23;70.39;94349.66;5102796;28;20036;-69
2023/11/21 10:14:06;;;;;;;15.27;10.95;;;;;;;6.29;70.84;94368.22;5085399;28;20516;-68
2023/11/21 10:16:32;;;;;;;16.73;10.98;;;;;;;6.29;70.89;94370.78;5069140;28;20048;-68
2023/11/21 10:18:57;;;;;;;16.17;10.35;;;;;;;6.45;70.21;94355.84;5069088;28;20394;-68
2023/11/21 10:21:23;;;;;;;17.67;11.40;;;;;;;6.44;70.04;94356.78;5069005;28;20035;-68
2023/11/21 10:23:48;;;;;;;17.55;10.55;;;;;;;7.01;68.35;94357.69;5068957;28;20085;-69
2023/11/21 10:26:17;;;;;;;15.93;11.75;;;;;;;7.14;67.10;94351.47;5085980;28;20050;-68
2023/11/21 10:28:58;;;;;;;17.15;10.60;;;;;;;6.85;66.36;94338.22;5068907;28;20043;-68
2023/11/21 10:31:25;;;;;;;14.77;10.43;;;;;;;6.94;66.40;94334.91;5070184;28;20024;-69
2023/11/21 10:33:52;;;;;;;12.13;9.02;;;;;;;6.99;65.46;94337.13;5068624;28;20035;-68
2023/11/21 10:36:30;;;;;;;11.18;8.25;;;;;;;6.74;66.03;94332.19;5068928;28;20069;-68
2023/11/21 10:38:57;;;;;;;12.45;8.75;;;;;;;7.21;64.36;94343.25;5068898;28;20029;-68
2023/11/21 10:41:22;;;;;;;16.02;9.13;;;;;;;7.24;64.07;94335.25;5068906;28;20043;-68
2023/11/21 10:43:48;;;;;;;12.70;8.35;;;;;;;7.40;64.35;94333.13;5085544;28;20490;-68
2023/11/21 10:46:14;;;;;;;13.02;8.32;;;;;;;7.59;63.22;94314.41;5073048;28;20017;-69
2023/11/21 10:48:42;;;;;;;12.57;8.90;;;;;;;7.56;64.04;94317.25;5055786;28;20036;-68
2023/11/21 10:51:07;;;;;;;14.65;8.77;;;;;;;7.51;64.06;94315.03;5073618;28;20033;-69
2023/11/21 10:53:33;;;;;;;15.30;9.07;;;;;;;7.43;65.07;94330.31;5072316;28;20032;-68
2023/11/21 10:56:17;;;;;;;12.80;8.20;;;;;;;7.45;64.58;94322.44;5089160;28;20045;-68
2023/11/21 10:58:43;;;;;;;11.82;7.70;;;;;;;7.90;63.58;94319.75;5102888;28;20041;-70
2023/11/21 11:01:11;;;;;;;14.55;8.20;;;;;;;8.09;63.28;94317.31;5089077;28;20029;-71
2023/11/21 11:03:37;;;;;;;12.75;7.50;;;;;;;8.27;61.79;94315.00;5072157;28;20036;-70
2023/11/21 11:06:03;;;;;;;10.60;7.60;;;;;;;8.32;60.37;94302.50;5105992;28;20498;-70
2023/11/21 11:08:28;;;;;;;9.90;7.70;;;;;;;8.35;60.33;94288.50;5072182;28;20094;-69
2023/11/21 11:10:53;;;;;;;11.43;7.47;;;;;;;8.56;60.12;94309.25;5088905;28;20028;-69
2023/11/21 11:13:19;;;;;;;15.30;8.05;;;;;;;8.58;60.12;94304.75;5073662;28;20036;-69
2023/11/21 11:15:48;;;;;;;10.77;7.03;;;;;;;8.41;60.82;94283.69;5055176;28;20020;-69
2023/11/21 11:18:14;;;;;;;10.32;7.40;;;;;;;8.58;60.28;94282.28;5105573;28;20033;-69
2023/11/21 11:20:40;;;;;;;12.02;7.38;;;;;;;8.53;60.72;94306.91;5088639;28;20032;-69
2023/11/21 11:23:31;;;;;;;12.00;6.90;;;;;;;8.74;59.96;94292.16;5088718;28;20509;-70
2023/11/21 11:26:05;;;;;;;12.25;7.97;;;;;;;8.85;59.67;94286.91;5105719;28;20028;-70
2023/11/21 11:28:44;;;;;;;11.65;7.55;;;;;;;8.28;61.31;94273.47;5071708;28;20047;-69